Time;durP1;ratioP1;P1;durP2;ratioP2;P2;SDS_P1;SDS_P2;PMS_P1;PMS_P2;Temp;Humidity;BMP_temperature;BMP_pressure;BME280_temperature;BME280_humidity;BME280_pressure;Samples;Min_cycle;Max_cycle;Signal;HPM_P1;HPM_P2
2021/11/26 00:02:17;;;;;;;93.45;34.35;;;;;;;1.61;92.74;97822.84;5066294;28;20037;-65
2021/11/26 00:04:43;;;;;;;88.15;32.83;;;;;;;1.61;92.59;97812.47;5065855;28;20314;-65
2021/11/26 00:07:09;;;;;;;88.47;34.55;;;;;;;1.57;92.50;97810.72;5065957;28;20071;-65
2021/11/26 00:09:34;;;;;;;78.93;31.67;;;;;;;1.62;92.58;97801.25;5065963;28;20041;-65
2021/11/26 00:11:59;;;;;;;80.70;32.17;;;;;;;1.65;92.75;97809.03;5066155;28;20080;-65
2021/11/26 00:14:28;;;;;;;87.75;31.85;;;;;;;1.55;93.22;97797.75;5065857;28;20021;-65
2021/11/26 00:16:57;;;;;;;78.30;33.03;;;;;;;1.61;93.14;97789.13;5065629;28;20059;-65
2021/11/26 00:19:23;;;;;;;85.40;32.08;;;;;;;1.56;93.28;97788.28;5065708;28;20025;-65
2021/11/26 00:21:48;;;;;;;81.53;30.25;;;;;;;1.51;93.34;97779.59;5065718;28;20031;-65
2021/11/26 00:24:13;;;;;;;72.05;30.58;;;;;;;1.59;93.38;97788.28;5065616;28;20033;-65
2021/11/26 00:26:40;;;;;;;76.70;31.90;;;;;;;1.59;93.55;97783.09;5065645;28;20086;-65
2021/11/26 00:29:05;;;;;;;68.72;29.63;;;;;;;1.68;93.28;97788.31;5065565;28;20028;-65
2021/11/26 00:31:31;;;;;;;71.05;31.95;;;;;;;1.66;92.99;97783.13;5065387;28;20264;-65
2021/11/26 00:33:57;;;;;;;78.78;29.90;;;;;;;1.47;93.24;97776.16;5063359;28;20316;-65
2021/11/26 00:36:22;;;;;;;73.30;30.08;;;;;;;1.48;94.02;97777.88;5063989;28;20067;-65
2021/11/26 00:38:47;;;;;;;87.03;31.65;;;;;;;1.57;94.49;97780.50;5063951;28;20036;-65
2021/11/26 00:41:13;;;;;;;87.43;34.88;;;;;;;1.50;93.87;97777.88;5062811;28;20016;-65
2021/11/26 00:43:39;;;;;;;85.97;34.97;;;;;;;1.50;93.64;97773.56;5063821;28;20028;-65
2021/11/26 00:46:04;;;;;;;93.57;34.38;;;;;;;1.57;93.53;97772.72;5063278;28;20043;-65
2021/11/26 00:48:29;;;;;;;91.72;32.72;;;;;;;1.64;93.65;97755.41;5063815;28;20016;-65
2021/11/26 00:50:54;;;;;;;80.53;33.53;;;;;;;1.73;93.41;97765.81;5063504;28;20028;-65
2021/11/26 00:53:20;;;;;;;82.63;34.78;;;;;;;1.70;93.30;97765.81;5063401;28;20324;-65
2021/11/26 00:55:46;;;;;;;72.90;30.27;;;;;;;1.69;93.46;97764.97;5063565;28;20016;-65
2021/11/26 00:58:11;;;;;;;77.82;32.58;;;;;;;1.58;93.55;97750.25;5063346;28;20021;-65
2021/11/26 01:00:36;;;;;;;74.38;29.63;;;;;;;1.54;93.67;97756.28;5063122;28;20021;-65
2021/11/26 01:03:03;;;;;;;67.97;30.55;;;;;;;1.45;93.70;97764.03;5063309;28;20033;-65
2021/11/26 01:05:29;;;;;;;70.30;30.67;;;;;;;1.54;93.71;97771.84;5063507;28;20025;-65
2021/11/26 01:07:54;;;;;;;76.28;31.73;;;;;;;1.56;93.46;97778.78;5063307;28;20035;-65
2021/11/26 01:10:21;;;;;;;72.18;29.23;;;;;;;1.59;93.58;97772.72;5063032;28;20216;-65
2021/11/26 01:12:48;;;;;;;75.68;30.90;;;;;;;1.62;93.65;97772.72;5062757;28;20013;-65
2021/11/26 01:15:18;;;;;;;83.93;32.35;;;;;;;1.65;93.74;97776.16;5063158;28;20127;-65
2021/11/26 01:17:44;;;;;;;85.15;36.70;;;;;;;1.70;93.64;97766.69;5062610;28;20024;-65
2021/11/26 01:20:15;;;;;;;89.28;36.85;;;;;;;1.77;93.75;97763.22;5062984;28;20209;-65
2021/11/26 01:22:42;;;;;;;96.78;37.70;;;;;;;1.80;93.56;97770.13;5063119;28;20021;-65
2021/11/26 01:25:08;;;;;;;82.20;35.35;;;;;;;1.84;93.51;97769.31;5062522;28;20017;-65
2021/11/26 01:27:34;;;;;;;100.00;39.30;;;;;;;1.87;93.10;97767.56;5062884;28;20037;-65
2021/11/26 01:30:05;;;;;;;89.72;36.03;;;;;;;1.90;92.98;97764.97;5062875;28;20024;-65
2021/11/26 01:32:30;;;;;;;90.75;38.58;;;;;;;1.87;93.17;97748.56;5062396;28;20025;-65
2021/11/26 01:34:55;;;;;;;83.00;35.60;;;;;;;1.88;93.06;97745.09;5062772;28;20224;-65
2021/11/26 01:37:21;;;;;;;87.55;34.95;;;;;;;1.85;93.04;97745.09;5062898;28;20040;-65
2021/11/26 01:39:46;;;;;;;88.10;35.95;;;;;;;1.80;93.55;97736.41;5062137;28;20025;-65
2021/11/26 01:42:11;;;;;;;82.80;36.13;;;;;;;1.80;93.75;97742.47;5062848;28;20213;-65
2021/11/26 01:44:36;;;;;;;87.82;35.50;;;;;;;1.73;93.97;97739.88;5062517;28;20021;-65
2021/11/26 01:47:02;;;;;;;83.15;35.60;;;;;;;1.67;94.46;97735.56;5062586;28;20271;-65
2021/11/26 01:49:27;;;;;;;86.55;35.72;;;;;;;1.69;94.13;97735.56;5062444;28;20313;-65
2021/11/26 01:51:53;;;;;;;92.00;36.03;;;;;;;1.69;94.24;97735.56;5062214;28;20036;-65
2021/11/26 01:54:18;;;;;;;86.22;35.33;;;;;;;1.64;94.02;97726.91;5062458;28;20036;-65
2021/11/26 01:56:43;;;;;;;86.57;36.40;;;;;;;1.69;94.02;97727.78;5062656;28;20032;-65
2021/11/26 01:59:09;;;;;;;84.25;36.13;;;;;;;1.63;94.32;97722.59;5062452;28;20036;-65
2021/11/26 02:01:34;;;;;;;91.57;36.22;;;;;;;1.67;94.21;97724.31;5069250;28;20109;-65
2021/11/26 02:03:59;;;;;;;88.28;36.47;;;;;;;1.50;94.43;97715.66;5061629;28;20021;-65
2021/11/26 02:06:25;;;;;;;92.47;35.92;;;;;;;1.29;95.11;97718.19;5062521;28;20071;-65
2021/11/26 02:08:50;;;;;;;87.63;34.25;;;;;;;1.30;95.25;97709.59;5062341;28;20031;-65
2021/11/26 02:11:17;;;;;;;98.65;36.25;;;;;;;1.37;95.42;97694.06;5062488;28;20024;-65
2021/11/26 02:13:42;;;;;;;85.38;34.70;;;;;;;1.38;94.93;97689.72;5062428;28;20025;-65
2021/11/26 02:16:09;;;;;;;90.82;36.65;;;;;;;1.24;94.75;97689.69;5062325;28;20033;-65
2021/11/26 02:18:35;;;;;;;81.18;33.10;;;;;;;1.33;95.14;97681.09;5062050;28;20066;-65
2021/11/26 02:21:00;;;;;;;80.45;33.45;;;;;;;1.32;94.90;97677.63;5062125;28;20272;-65
2021/11/26 02:23:26;;;;;;;86.53;34.58;;;;;;;1.41;94.48;97676.75;5062129;28;20065;-65
2021/11/26 02:25:51;;;;;;;90.28;36.38;;;;;;;1.35;94.52;97675.03;5062308;28;20092;-65
2021/11/26 02:28:18;;;;;;;84.28;36.05;;;;;;;1.39;94.43;97665.53;5062106;28;20127;-65
2021/11/26 02:30:44;;;;;;;88.32;36.08;;;;;;;1.38;94.88;97659.47;5062466;28;20029;-65
2021/11/26 02:33:13;;;;;;;95.00;36.50;;;;;;;1.40;94.63;97650.00;5063677;28;20220;-65
2021/11/26 02:35:40;;;;;;;90.72;37.80;;;;;;;1.26;94.81;97650.81;5063592;28;20062;-65
2021/11/26 02:38:08;;;;;;;91.63;37.70;;;;;;;1.19;94.67;97641.31;5063656;28;20094;-65
2021/11/26 02:40:34;;;;;;;88.13;35.38;;;;;;;1.13;95.13;97641.28;5063557;28;20025;-65
2021/11/26 02:43:00;;;;;;;86.72;33.38;;;;;;;1.12;94.78;97639.56;5063471;28;20025;-65
2021/11/26 02:45:27;;;;;;;95.18;35.92;;;;;;;1.07;94.78;97641.28;5063556;28;20296;-65
2021/11/26 02:47:53;;;;;;;74.25;31.33;;;;;;;1.00;95.16;97629.19;5063774;28;20047;-65
2021/11/26 02:50:20;;;;;;;81.50;34.35;;;;;;;1.01;95.33;97628.34;5063297;28;20032;-65
2021/11/26 02:52:45;;;;;;;90.93;35.30;;;;;;;1.05;95.68;97632.66;5063162;28;20320;-65
2021/11/26 02:55:15;;;;;;;72.97;31.17;;;;;;;1.12;95.15;97629.22;5062927;28;20056;-65
2021/11/26 02:57:40;;;;;;;85.38;33.60;;;;;;;1.15;94.93;97634.41;5063002;28;20054;-65
2021/11/26 03:00:08;;;;;;;85.57;34.92;;;;;;;1.22;94.78;97630.94;5062956;28;20029;-65
2021/11/26 03:02:34;;;;;;;82.15;32.47;;;;;;;1.29;94.62;97622.31;5062648;28;20253;-65
2021/11/26 03:04:59;;;;;;;86.93;31.65;;;;;;;1.22;94.81;97620.59;5063907;28;20035;-65
2021/11/26 03:07:24;;;;;;;94.50;36.20;;;;;;;1.07;95.32;97612.78;5066415;28;20039;-65
2021/11/26 03:09:50;;;;;;;89.60;36.17;;;;;;;1.16;95.57;97620.56;5066392;28;20067;-65
2021/11/26 03:12:16;;;;;;;90.65;35.67;;;;;;;1.29;95.24;97617.13;5066469;28;20040;-65
2021/11/26 03:14:41;;;;;;;82.40;33.83;;;;;;;1.35;94.75;97617.13;5066457;28;20031;-65
2021/11/26 03:17:07;;;;;;;85.15;33.90;;;;;;;1.34;94.71;97618.00;5066280;28;20037;-65
2021/11/26 03:19:32;;;;;;;84.57;36.03;;;;;;;1.39;94.52;97611.09;5066213;28;20372;-65
2021/11/26 03:21:57;;;;;;;88.32;35.75;;;;;;;1.41;94.51;97611.94;5066235;28;20025;-65
2021/11/26 03:24:23;;;;;;;88.95;35.92;;;;;;;1.41;94.61;97602.44;5065791;28;20021;-65
2021/11/26 03:26:48;;;;;;;85.05;34.50;;;;;;;1.46;94.54;97594.69;5066296;28;20031;-65
2021/11/26 03:29:14;;;;;;;89.32;35.95;;;;;;;1.51;94.24;97592.94;5066251;28;20021;-65
2021/11/26 03:31:39;;;;;;;94.25;35.40;;;;;;;1.48;93.90;97583.44;5064238;28;20028;-65
2021/11/26 03:34:05;;;;;;;89.95;35.13;;;;;;;1.31;94.46;97579.13;5065768;28;20017;-65
2021/11/26 03:36:31;;;;;;;81.97;34.38;;;;;;;1.09;95.31;97577.38;5065951;28;20220;-65
2021/11/26 03:38:56;;;;;;;92.72;36.63;;;;;;;1.23;95.43;97576.53;5065882;28;20029;-65
2021/11/26 03:41:22;;;;;;;89.15;33.40;;;;;;;1.37;95.36;97579.13;5065900;28;20045;-65
2021/11/26 03:43:47;;;;;;;87.55;35.75;;;;;;;1.45;94.84;97572.19;5065935;28;20025;-65
2021/11/26 03:46:13;;;;;;;81.72;33.13;;;;;;;1.54;94.54;97579.97;5065599;28;20217;-65
2021/11/26 03:48:38;;;;;;;96.07;37.38;;;;;;;1.55;94.29;97576.53;5066183;28;20027;-65
2021/11/26 03:51:04;;;;;;;89.22;37.67;;;;;;;1.49;94.68;97573.94;5065599;28;20302;-65
2021/11/26 03:53:29;;;;;;;104.85;39.97;;;;;;;1.61;94.62;97563.53;5065418;28;20020;-65
2021/11/26 03:55:55;;;;;;;104.47;40.25;;;;;;;1.59;94.35;97555.75;5065638;28;20312;-65
2021/11/26 03:58:20;;;;;;;92.63;37.13;;;;;;;1.72;93.94;97556.59;5065514;28;20198;-65
2021/11/26 04:00:46;;;;;;;89.97;37.65;;;;;;;1.76;93.63;97547.94;5065834;28;20021;-65
2021/11/26 04:03:11;;;;;;;92.20;38.50;;;;;;;1.65;93.74;97549.72;5065338;28;20305;-65
2021/11/26 04:05:36;;;;;;;93.55;38.15;;;;;;;1.69;93.90;97557.50;5059443;28;20021;-65
2021/11/26 04:08:02;;;;;;;89.43;37.95;;;;;;;1.74;93.60;97549.69;5065310;28;20088;-65
2021/11/26 04:10:28;;;;;;;96.22;39.25;;;;;;;1.80;93.71;97549.66;5065423;28;20028;-65
2021/11/26 04:12:54;;;;;;;103.93;41.35;;;;;;;1.78;93.42;97547.06;5065370;28;20051;-65
2021/11/26 04:15:20;;;;;;;95.80;36.45;;;;;;;1.84;93.12;97546.22;5064971;28;20025;-65
2021/11/26 04:17:48;;;;;;;92.68;38.35;;;;;;;1.79;93.27;97547.94;5065153;28;20029;-65
2021/11/26 04:20:15;;;;;;;99.32;39.60;;;;;;;1.78;93.29;97551.41;5065235;28;20066;-65
2021/11/26 04:22:40;;;;;;;94.30;38.20;;;;;;;1.74;93.81;97547.94;5065017;28;20032;-65
2021/11/26 04:25:08;;;;;;;97.65;38.22;;;;;;;1.78;93.80;97548.81;5064769;28;20212;-65
2021/11/26 04:27:33;;;;;;;98.70;40.55;;;;;;;1.80;93.49;97549.66;5064661;28;20024;-65
2021/11/26 04:29:58;;;;;;;94.75;38.50;;;;;;;1.88;93.22;97547.91;5065322;28;20079;-65
2021/11/26 04:32:25;;;;;;;102.22;39.53;;;;;;;1.85;93.64;97543.63;5064941;28;20021;-65
2021/11/26 04:34:52;;;;;;;101.03;40.33;;;;;;;1.89;93.46;97539.25;5065204;28;20024;-65
2021/11/26 04:37:17;;;;;;;93.65;38.75;;;;;;;1.93;93.41;97530.63;5064831;28;20067;-65
2021/11/26 04:39:42;;;;;;;100.60;39.28;;;;;;;1.92;93.10;97534.94;5064757;28;20029;-65
2021/11/26 04:42:09;;;;;;;90.53;36.65;;;;;;;1.93;93.36;97531.47;5064597;28;20070;-65
2021/11/26 04:44:34;;;;;;;95.32;35.85;;;;;;;1.97;92.83;97532.34;5064914;28;20032;-65
2021/11/26 04:46:59;;;;;;;94.15;38.90;;;;;;;1.99;92.80;97535.75;5064970;28;20366;-65
2021/11/26 04:49:25;;;;;;;92.50;39.45;;;;;;;1.98;92.94;97526.25;5065222;28;20031;-65
2021/11/26 04:51:50;;;;;;;87.60;39.75;;;;;;;1.92;93.01;97523.69;5065198;28;20028;-65
2021/11/26 04:54:15;;;;;;;97.10;37.17;;;;;;;1.85;93.27;97517.69;5065337;28;20017;-65
2021/11/26 04:56:41;;;;;;;99.57;39.47;;;;;;;1.78;93.28;97525.47;5064881;28;20024;-65
2021/11/26 04:59:06;;;;;;;100.03;39.55;;;;;;;1.86;93.73;97510.72;5064584;28;20067;-65
2021/11/26 05:01:31;;;;;;;95.28;39.58;;;;;;;1.90;92.71;97515.06;5064168;28;20127;-65
2021/11/26 05:03:57;;;;;;;91.40;37.45;;;;;;;1.97;92.81;97512.41;5064289;28;20324;-65
2021/11/26 05:06:22;;;;;;;100.55;39.35;;;;;;;1.84;93.22;97507.31;5064463;28;20024;-65
2021/11/26 05:08:47;;;;;;;93.60;39.22;;;;;;;1.86;93.28;97510.72;5064682;28;20216;-65
2021/11/26 05:11:13;;;;;;;92.15;39.55;;;;;;;1.95;93.25;97505.50;5063852;28;20017;-65
2021/11/26 05:13:43;;;;;;;92.38;38.72;;;;;;;1.94;93.38;97502.09;5064208;28;20021;-65
2021/11/26 05:16:13;;;;;;;98.43;38.15;;;;;;;2.03;93.04;97496.81;5063955;28;20095;-65
2021/11/26 05:18:38;;;;;;;98.80;39.58;;;;;;;1.97;93.14;97496.00;5064068;28;20024;-65
2021/11/26 05:21:03;;;;;;;99.25;40.72;;;;;;;1.93;93.49;97495.16;5064186;28;20016;-65
2021/11/26 05:23:28;;;;;;;94.32;39.17;;;;;;;1.95;93.02;97497.72;5063773;28;20112;-65
2021/11/26 05:25:54;;;;;;;98.78;38.78;;;;;;;2.01;92.78;97492.53;5064891;28;20316;-65
2021/11/26 05:28:19;;;;;;;90.75;37.40;;;;;;;1.99;92.56;97491.66;5063427;28;20020;-65
2021/11/26 05:30:45;;;;;;;99.15;37.42;;;;;;;2.02;92.81;97494.25;5064084;28;20021;-65
2021/11/26 05:33:11;;;;;;;98.65;40.72;;;;;;;1.99;92.48;97483.88;5064381;28;20021;-65
2021/11/26 05:35:37;;;;;;;90.70;39.42;;;;;;;1.87;92.89;97476.16;5064404;28;20027;-65
2021/11/26 05:38:03;;;;;;;94.63;38.67;;;;;;;2.01;92.75;97474.34;5064299;28;20031;-65
2021/11/26 05:40:28;;;;;;;89.75;38.63;;;;;;;1.93;92.42;97478.75;5064158;28;20035;-65
2021/11/26 05:42:54;;;;;;;95.18;39.10;;;;;;;1.92;92.82;97477.00;5064170;28;20024;-65
2021/11/26 05:45:19;;;;;;;86.10;36.10;;;;;;;1.94;93.07;97475.25;5064170;28;20020;-65
2021/11/26 05:47:46;;;;;;;87.10;36.80;;;;;;;1.94;93.00;97475.25;5064409;28;20028;-65
2021/11/26 05:50:14;;;;;;;81.82;35.08;;;;;;;1.98;92.83;97471.78;5064070;28;20025;-65
2021/11/26 05:52:39;;;;;;;94.28;38.10;;;;;;;1.94;92.55;97464.88;5064116;28;20025;-65
2021/11/26 05:55:09;;;;;;;95.75;39.63;;;;;;;1.84;92.97;97463.19;5064075;28;20036;-65
2021/11/26 05:57:35;;;;;;;97.28;38.95;;;;;;;1.95;92.88;97462.28;5064007;28;20050;-65
2021/11/26 06:00:00;;;;;;;90.13;39.15;;;;;;;1.94;93.04;97449.31;5064037;28;20024;-65
2021/11/26 06:02:26;;;;;;;91.05;38.42;;;;;;;2.01;92.70;97458.78;5064255;28;20020;-65
2021/11/26 06:04:51;;;;;;;96.82;39.28;;;;;;;1.85;93.11;97454.53;5063781;28;20028;-65
2021/11/26 06:07:16;;;;;;;89.63;36.83;;;;;;;1.87;93.60;97450.22;5063903;28;20313;-65
2021/11/26 06:09:41;;;;;;;102.13;40.38;;;;;;;1.79;93.56;97450.25;5063847;28;20071;-65
2021/11/26 06:12:09;;;;;;;97.25;38.15;;;;;;;1.82;93.59;97439.00;5063845;28;20043;-65
2021/11/26 06:14:35;;;;;;;101.65;38.75;;;;;;;1.75;94.08;97442.50;5063944;28;20024;-65
2021/11/26 06:17:00;;;;;;;98.78;41.03;;;;;;;1.84;93.51;97432.06;5063682;28;20064;-65
2021/11/26 06:19:26;;;;;;;101.47;40.97;;;;;;;1.76;93.84;97428.63;5063813;28;20055;-65
2021/11/26 06:21:51;;;;;;;104.18;40.47;;;;;;;1.80;93.74;97420.84;5063726;28;20127;-65
2021/11/26 06:24:16;;;;;;;94.70;38.05;;;;;;;1.78;93.81;97421.72;5063657;28;20021;-65
2021/11/26 06:26:41;;;;;;;108.45;41.60;;;;;;;1.71;94.13;97412.25;5063664;28;20044;-65
2021/11/26 06:29:07;;;;;;;96.10;37.72;;;;;;;1.84;93.94;97411.31;5063765;28;20064;-65
2021/11/26 06:31:32;;;;;;;101.82;39.40;;;;;;;1.88;93.86;97429.47;5063607;28;20025;-65
2021/11/26 06:33:57;;;;;;;102.00;40.47;;;;;;;1.83;93.93;97417.38;5063638;28;20027;-65
2021/11/26 06:36:23;;;;;;;98.75;38.97;;;;;;;1.81;94.25;97424.31;5063662;28;20036;-65
2021/11/26 06:38:48;;;;;;;99.43;38.70;;;;;;;1.82;94.39;97419.13;5063617;28;20098;-64
2021/11/26 06:41:14;;;;;;;101.43;38.65;;;;;;;1.90;94.32;97413.91;5066855;28;20024;-64
2021/11/26 06:43:39;;;;;;;93.53;38.78;;;;;;;1.96;94.22;97406.06;5067507;28;20321;-64
2021/11/26 06:46:04;;;;;;;94.90;38.08;;;;;;;1.99;93.88;97400.84;5067582;28;20013;-64
2021/11/26 06:48:29;;;;;;;94.75;39.08;;;;;;;1.92;93.75;97405.22;5067485;28;20020;-64
2021/11/26 06:50:55;;;;;;;92.68;37.63;;;;;;;1.92;94.28;97393.97;5060578;28;20025;-64
2021/11/26 06:53:21;;;;;;;98.15;39.58;;;;;;;2.02;93.76;97395.63;5047673;28;20024;-64
2021/11/26 06:55:46;;;;;;;98.45;40.00;;;;;;;1.98;93.70;97399.13;5047410;28;20021;-64
2021/11/26 06:58:12;;;;;;;103.28;40.38;;;;;;;1.87;93.73;97385.38;5047439;28;20052;-64
2021/11/26 07:00:37;;;;;;;98.20;38.72;;;;;;;1.87;93.68;97385.38;5047311;28;20313;-64
2021/11/26 07:03:03;;;;;;;101.65;39.90;;;;;;;1.85;94.01;97381.91;5047078;28;20033;-64
2021/11/26 07:05:28;;;;;;;104.68;42.90;;;;;;;1.85;93.83;97379.31;5047480;28;20021;-64
2021/11/26 07:07:54;;;;;;;97.57;39.60;;;;;;;1.87;93.91;97378.44;5047146;28;20084;-64
2021/11/26 07:10:19;;;;;;;96.05;38.08;;;;;;;1.88;94.07;97371.53;5047153;28;20029;-64
2021/11/26 07:12:45;;;;;;;96.40;39.97;;;;;;;1.97;93.94;97367.13;5047085;28;20021;-64
2021/11/26 07:15:12;;;;;;;103.38;40.88;;;;;;;1.97;93.75;97355.91;5046860;28;20025;-64
2021/11/26 07:17:37;;;;;;;97.63;39.50;;;;;;;1.96;94.19;97354.16;5047018;28;20202;-64
2021/11/26 07:20:04;;;;;;;92.70;38.60;;;;;;;1.93;94.15;97354.22;5047188;28;20172;-64
2021/11/26 07:22:30;;;;;;;103.82;39.85;;;;;;;2.03;94.14;97350.69;5045329;28;20029;-64
2021/11/26 07:24:55;;;;;;;99.90;39.75;;;;;;;1.95;93.98;97352.44;5045858;28;20036;-64
2021/11/26 07:27:20;;;;;;;97.22;39.13;;;;;;;1.99;94.50;97354.16;5045880;28;20084;-64
2021/11/26 07:29:46;;;;;;;97.25;38.90;;;;;;;2.08;94.01;97354.09;5046059;28;20021;-64
2021/11/26 07:32:11;;;;;;;106.47;41.17;;;;;;;2.05;94.02;97343.72;5045726;28;20025;-64
2021/11/26 07:34:40;;;;;;;112.78;42.50;;;;;;;2.13;94.21;97347.16;5058161;28;20024;-65
2021/11/26 07:37:06;;;;;;;103.95;40.70;;;;;;;2.24;93.72;97345.31;5065682;28;20027;-65
2021/11/26 07:39:33;;;;;;;100.55;40.45;;;;;;;2.27;93.76;97340.09;5065631;28;20135;-65
2021/11/26 07:42:02;;;;;;;105.25;40.78;;;;;;;2.29;93.64;97335.78;5065583;28;20397;-65
2021/11/26 07:44:28;;;;;;;107.18;40.80;;;;;;;2.32;93.88;97343.53;5065466;28;20021;-65
2021/11/26 07:46:53;;;;;;;99.65;42.08;;;;;;;2.40;93.22;97330.50;5065075;28;20029;-64
2021/11/26 07:49:18;;;;;;;125.75;43.00;;;;;;;2.43;93.41;97336.50;5065698;28;20052;-65
2021/11/26 07:51:44;;;;;;;108.43;42.95;;;;;;;2.49;93.02;97335.59;5064865;28;20028;-65
2021/11/26 07:54:09;;;;;;;107.75;39.75;;;;;;;2.58;93.05;97336.38;5065368;28;20028;-65
2021/11/26 07:56:35;;;;;;;111.85;41.35;;;;;;;2.51;92.84;97329.53;5065319;28;20378;-65
2021/11/26 07:59:01;;;;;;;116.88;41.33;;;;;;;2.55;92.97;97341.63;5065298;28;20024;-65
2021/11/26 08:01:27;;;;;;;123.38;41.08;;;;;;;2.62;92.48;97340.69;5064831;28;20025;-65
2021/11/26 08:03:52;;;;;;;107.43;41.28;;;;;;;2.67;92.20;97333.72;5065016;28;20059;-65
2021/11/26 08:06:17;;;;;;;116.15;38.67;;;;;;;2.55;92.58;97319.97;5065091;28;20029;-65
2021/11/26 08:08:43;;;;;;;115.47;43.58;;;;;;;2.60;93.23;97326.88;5065103;28;20423;-65
2021/11/26 08:11:09;;;;;;;113.45;43.92;;;;;;;2.52;93.48;97320.88;5065038;28;20374;-65
2021/11/26 08:13:34;;;;;;;123.50;43.65;;;;;;;2.66;92.53;97324.19;5064556;28;20226;-65
2021/11/26 08:15:59;;;;;;;103.28;40.05;;;;;;;2.84;92.33;97323.13;5064761;28;20056;-65
2021/11/26 08:18:25;;;;;;;119.50;43.40;;;;;;;2.72;92.48;97318.94;5064901;28;20052;-65
2021/11/26 08:20:50;;;;;;;113.57;40.83;;;;;;;2.79;92.35;97302.44;5064893;28;20245;-65
2021/11/26 08:23:15;;;;;;;107.15;42.33;;;;;;;2.74;92.59;97301.59;5065516;28;20035;-64
2021/11/26 08:25:41;;;;;;;122.22;44.45;;;;;;;2.68;92.54;97304.25;5065664;28;20370;-64
2021/11/26 08:28:06;;;;;;;117.93;40.15;;;;;;;2.77;92.45;97304.19;5065689;28;20029;-64
2021/11/26 08:30:32;;;;;;;111.30;44.05;;;;;;;2.86;92.09;97306.69;5065560;28;20032;-64
2021/11/26 08:32:57;;;;;;;125.70;44.53;;;;;;;2.79;92.54;97299.84;5065551;28;20320;-64
2021/11/26 08:35:26;;;;;;;127.18;45.05;;;;;;;2.86;92.76;97301.50;5065777;28;20248;-64
2021/11/26 08:37:52;;;;;;;116.78;41.45;;;;;;;2.91;93.05;97294.47;5065493;28;20021;-64
2021/11/26 08:40:18;;;;;;;119.95;42.40;;;;;;;3.00;92.22;97294.38;5065641;28;20331;-64
2021/11/26 08:42:44;;;;;;;130.65;44.65;;;;;;;3.00;92.32;97291.78;5065321;28;20025;-64
2021/11/26 08:45:12;;;;;;;130.50;46.45;;;;;;;3.06;92.16;97291.72;5065546;28;20021;-64
2021/11/26 08:47:38;;;;;;;116.30;43.95;;;;;;;2.94;91.78;97293.63;5065538;28;20021;-64
2021/11/26 08:50:05;;;;;;;131.63;42.90;;;;;;;2.99;91.99;97287.47;5065188;28;20031;-64
2021/11/26 08:52:31;;;;;;;141.90;44.33;;;;;;;2.95;92.22;97280.59;5065120;28;20029;-64
2021/11/26 08:54:56;;;;;;;122.55;42.58;;;;;;;2.99;91.65;97277.09;5065395;28;20067;-64
2021/11/26 08:57:27;;;;;;;130.70;43.60;;;;;;;3.01;91.65;97275.31;5065059;28;20032;-64
2021/11/26 08:59:52;;;;;;;124.72;43.55;;;;;;;3.05;92.00;97277.03;5065340;28;20024;-64
2021/11/26 09:02:17;;;;;;;128.68;44.72;;;;;;;2.90;92.07;97269.38;5064370;28;20186;-64
2021/11/26 09:04:43;;;;;;;133.93;44.30;;;;;;;2.94;92.77;97260.69;5065017;28;20032;-64
2021/11/26 09:07:08;;;;;;;127.07;42.30;;;;;;;3.02;92.26;97256.25;5064970;28;20087;-64
2021/11/26 09:09:33;;;;;;;137.23;44.80;;;;;;;2.99;92.69;97255.44;5064814;28;20044;-64
2021/11/26 09:12:00;;;;;;;120.45;42.72;;;;;;;3.10;92.67;97267.41;5064796;28;20024;-64
2021/11/26 09:14:25;;;;;;;127.68;43.53;;;;;;;3.16;92.29;97269.09;5064993;28;20044;-64
2021/11/26 09:16:51;;;;;;;126.88;43.20;;;;;;;3.12;92.13;97255.28;5064564;28;20037;-64
2021/11/26 09:19:16;;;;;;;135.05;44.90;;;;;;;3.13;92.80;97253.53;5064665;28;20066;-64
2021/11/26 09:21:41;;;;;;;115.68;41.08;;;;;;;3.15;92.77;97250.03;5063277;28;20025;-64
2021/11/26 09:24:07;;;;;;;127.47;43.72;;;;;;;3.02;92.48;97243.28;5064049;28;20021;-64
2021/11/26 09:26:32;;;;;;;137.85;45.10;;;;;;;3.10;92.90;97233.63;5064504;28;20024;-64
2021/11/26 09:28:58;;;;;;;129.90;44.58;;;;;;;3.07;92.98;97228.47;5064484;28;20021;-64
2021/11/26 09:31:23;;;;;;;132.77;45.33;;;;;;;3.21;92.70;97225.69;5064694;28;20052;-64
2021/11/26 09:33:52;;;;;;;140.77;44.75;;;;;;;3.24;92.49;97221.31;5064413;28;20048;-64
2021/11/26 09:36:17;;;;;;;145.27;44.03;;;;;;;3.14;92.74;97209.34;5064600;28;20351;-64
2021/11/26 09:38:42;;;;;;;121.97;41.25;;;;;;;3.15;93.57;97211.03;5064571;28;20025;-64
2021/11/26 09:41:11;;;;;;;140.23;43.53;;;;;;;3.22;93.36;97212.69;5064281;28;20028;-64
2021/11/26 09:43:37;;;;;;;133.25;43.65;;;;;;;3.25;93.55;97207.44;5054787;28;20259;-64
2021/11/26 09:46:05;;;;;;;152.45;43.67;;;;;;;3.15;93.69;97200.66;5054489;28;20028;-64
2021/11/26 09:48:33;;;;;;;150.63;44.53;;;;;;;3.10;94.00;97197.22;5054838;28;20021;-64
2021/11/26 09:50:59;;;;;;;136.23;42.67;;;;;;;3.13;94.36;97196.34;5056031;28;20060;-64
2021/11/26 09:53:27;;;;;;;135.70;43.03;;;;;;;3.23;94.25;97192.75;5071812;28;20021;-64
2021/11/26 09:55:57;;;;;;;138.77;43.17;;;;;;;3.19;94.33;97181.53;5058523;28;20021;-64
2021/11/26 09:58:24;;;;;;;136.27;42.53;;;;;;;3.28;94.45;97184.00;5054558;28;20127;-64
2021/11/26 10:00:51;;;;;;;136.07;42.47;;;;;;;3.22;94.23;97184.09;5063082;28;20029;-64
2021/11/26 10:03:17;;;;;;;135.68;40.17;;;;;;;3.31;93.82;97176.16;5063325;28;20029;-64
2021/11/26 10:05:45;;;;;;;138.07;43.25;;;;;;;3.28;94.31;97168.41;5062691;28;20094;-64
2021/11/26 10:08:11;;;;;;;123.88;39.78;;;;;;;3.34;93.78;97176.13;5062926;28;20074;-64
2021/11/26 10:10:41;;;;;;;143.60;42.97;;;;;;;3.47;93.86;97172.44;5062921;28;20088;-65
2021/11/26 10:13:13;;;;;;;119.90;38.05;;;;;;;3.38;93.69;97169.97;5062844;28;20045;-64
2021/11/26 10:15:40;;;;;;;140.02;39.80;;;;;;;3.43;94.24;97163.00;5062967;28;20229;-64
2021/11/26 10:18:13;;;;;;;128.85;39.72;;;;;;;3.45;94.13;97153.41;5044326;28;20025;-64
2021/11/26 10:20:57;;;;;;;133.50;39.67;;;;;;;3.53;93.98;97155.88;5042888;28;20096;-64
2021/11/26 10:23:25;;;;;;;119.07;38.15;;;;;;;3.34;93.73;97142.31;5042833;28;20025;-64
2021/11/26 10:25:51;;;;;;;130.18;37.42;;;;;;;3.52;93.79;97134.25;5042852;28;20025;-65
2021/11/26 10:28:18;;;;;;;126.00;39.17;;;;;;;3.37;93.94;97134.47;5043092;28;20036;-65
2021/11/26 10:30:46;;;;;;;120.00;37.78;;;;;;;3.41;93.89;97132.66;5042366;28;20209;-64
2021/11/26 10:33:18;;;;;;;120.57;37.20;;;;;;;3.50;94.17;97133.41;5043031;28;20291;-64
2021/11/26 10:35:55;;;;;;;120.20;36.28;;;;;;;3.51;93.83;97124.69;5043052;28;20021;-64
2021/11/26 10:38:33;;;;;;;122.82;34.20;;;;;;;3.52;94.09;97117.78;5042743;28;20029;-64
2021/11/26 10:41:03;;;;;;;122.70;37.58;;;;;;;3.55;93.74;97118.56;5042780;28;20225;-64
2021/11/26 10:43:38;;;;;;;115.03;34.92;;;;;;;3.64;93.80;97113.22;5042194;28;20024;-64
2021/11/26 10:58:59;;;;;;;122.60;34.40;;;;;;;3.76;93.30;97076.59;5053232;28;20024;-64
2021/11/26 11:01:24;;;;;;;118.13;35.60;;;;;;;3.74;94.14;97067.94;5042608;28;20325;-64
2021/11/26 11:03:51;;;;;;;119.05;33.20;;;;;;;3.81;93.89;97066.97;5042348;28;20033;-64
2021/11/26 11:06:22;;;;;;;123.70;35.58;;;;;;;3.78;93.44;97058.34;5042499;28;20048;-64
2021/11/26 11:09:02;;;;;;;122.05;33.88;;;;;;;3.84;93.68;97059.13;5042519;28;20355;-64
2021/11/26 11:11:28;;;;;;;120.97;35.40;;;;;;;3.82;93.56;97058.28;5042419;28;20029;-64
2021/11/26 11:13:54;;;;;;;108.22;32.58;;;;;;;3.73;93.67;97055.81;5042415;28;20337;-64
2021/11/26 11:16:19;;;;;;;120.95;34.17;;;;;;;3.74;94.02;97047.13;5042529;28;20037;-64
2021/11/26 11:18:44;;;;;;;115.93;34.42;;;;;;;3.72;93.85;97043.72;5042359;28;20049;-64
2021/11/26 11:21:10;;;;;;;127.85;36.33;;;;;;;3.68;93.92;97036.88;5048588;28;20313;-64
2021/11/26 11:23:36;;;;;;;113.93;32.58;;;;;;;3.71;94.23;97043.75;5062313;28;20036;-64
2021/11/26 11:26:02;;;;;;;130.18;35.08;;;;;;;3.58;93.71;97030.06;5066749;28;20263;-64
2021/11/26 11:28:28;;;;;;;125.30;34.60;;;;;;;3.64;94.36;97024.78;5065462;28;20314;-64
2021/11/26 11:30:54;;;;;;;130.02;36.50;;;;;;;3.77;94.01;97026.25;5065238;28;20071;-65